Latest Coastal Weather Observations for Warruwi

IDD60701

Issued at 10:41 pm CST Saturday 13 February 2016 (issued every 10 minutes, with the page automatically refreshed every 10 minutes)

About coastal observations | Map of coastal stations | Coastal observations for NT | Marine services | Other Formats
Station Details ID: 014401 Name: WARRUWI AIRPORT Lat: -11.65 Lon: 133.38 Height: 19.2 m
Data from the previous 72 hours. | See also: Recent months at Warruwi
Date/Time
CST
Temp

°C
Wind Pressure Rain
since 9am
mm
Weather Cloud Vis
km
Sea
Height
m
Swell
Dir
 
Speed
knots
Gust
knots
hPa Trend Height
m
Period
s
Dir
13/10:30pm 27.7 CALM 0 2 1009.1 - 4.8 - - - - - - -
13/10:00pm 28.0 WSW 1 1 1008.7 - 4.8 - - - - - - -
13/09:30pm 28.4 SW 3 4 1008.6 - 4.8 - - - - - - -
13/09:00pm 28.4 WSW 3 4 1008.2 - 4.8 - - - - - - -
13/08:30pm 28.4 W 6 8 1007.9 - 4.8 - - - - - - -
13/08:00pm 28.1 WNW 3 4 1007.5 - 4.8 - - - - - - -
13/07:30pm 27.9 WNW 5 7 1007.4 - 4.8 - - - - - - -
13/07:00pm 28.2 WNW 4 6 1007.4 - 4.8 - - - - - - -
13/06:30pm 27.9 NW 2 3 1007.1 - 4.8 - - - - - - -
13/06:00pm 27.8 NW 2 3 1006.7 - 4.8 - - - - - - -
13/05:30pm 27.2 NNW 1 4 1006.5 - 4.8 - - - - - - -
13/05:00pm 26.9 NW 3 7 1006.1 - 4.8 - - - - - - -
13/04:30pm 26.5 SW 11 16 1006.6 - 2.2 - - - - - - -
13/04:21pm 28.8 SW 7 13 1006.9 - 0.6 - - - - - - -
13/04:00pm 34.1 NW 4 8 1006.2 - 0.0 - - - - - - -
13/03:30pm 34.3 NNW 5 8 1006.1 - 0.0 - - - - - - -
13/03:00pm 33.7 NW 3 6 1006.3 - 0.0 - - - - - - -
13/02:30pm 32.7 WNW 4 7 1006.5 - 0.0 - - - - - - -
13/02:00pm 32.0 WNW 4 7 1006.7 - 0.0 - - - - - - -
13/01:30pm 31.9 SSW 4 6 1006.8 - 0.0 - - - - - - -
13/01:00pm 31.4 SSW 2 4 1007.3 - 0.0 - - - - - - -
13/12:30pm 31.4 WSW 3 6 1007.8 - 0.0 - - - - - - -
13/12:00pm 31.1 W 4 7 1008.2 - 0.0 - - - - - - -
13/11:30am 30.7 W 6 9 1008.7 - 0.0 - - - - - - -
13/11:00am 30.4 W 8 11 1008.9 - 0.0 - - - - - - -
13/10:30am 30.3 W 6 8 1009.4 - 0.0 - - - - - - -
13/10:00am 29.7 SSW 3 4 1009.6 - 0.0 - - - - - - -
13/09:30am 29.4 SW 3 5 1009.8 - 0.0 - - - - - - -
13/09:00am 29.2 SW 2 4 1009.7 - 0.0 - - - - - - -
13/08:30am 28.6 SW 2 2 1009.5 - 0.0 - - - - - - -
13/08:00am 28.2 CALM 0 0 1009.1 - 0.0 - - - - - - -
13/07:30am 27.7 CALM 0 0 1008.8 - 0.0 - - - - - - -
13/07:00am 27.5 NNE 2 3 1008.9 - 0.0 - - - - - - -
13/06:30am 27.4 CALM 0 2 1008.6 - 0.0 - - - - - - -
13/06:00am 27.5 CALM 0 1 1008.6 - 0.0 - - - - - - -
13/05:30am 27.6 CALM 0 0 1008.6 - 0.0 - - - - - - -
13/05:00am 27.7 CALM 0 0 1007.8 - 0.0 - - - - - - -
13/04:30am 27.6 CALM 0 2 1007.7 - 0.0 - - - - - - -
13/04:00am 27.6 WSW 1 3 1007.4 - 0.0 - - - - - - -
13/03:30am 27.9 SW 4 6 1006.9 - 0.0 - - - - - - -
13/03:00am 28.4 SSW 1 2 1006.8 - 0.0 - - - - - - -
13/02:30am 28.6 SSE 2 4 1006.8 - 0.0 - - - - - - -
13/02:00am 28.5 CALM 0 2 1007.2 - 0.0 - - - - - - -
13/01:30am 28.4 S 3 4 1007.8 - 0.0 - - - - - - -
13/01:00am 28.4 SSE 4 6 1008.3 - 0.0 - - - - - - -
13/12:30am 28.6 SSE 5 8 1008.6 - 0.0 - - - - - - -
13/12:00am 29.1 S 3 5 1008.7 - 0.0 - - - - - - -
 
Date/Time
CST
Temp

°C
Wind Pressure Rain
since 9am
mm
Weather Cloud Vis
km
Sea
Height
m
Swell
Dir
 
Speed
knots
Gust
knots
hPa Trend Height
m
Period
s
Dir
12/11:30pm 28.6 WNW 3 5 1008.2 - 0.0 - - - - - - -
12/11:00pm 28.1 NW 2 3 1008.3 - 0.0 - - - - - - -
12/10:30pm 28.3 CALM 0 0 1008.4 - 0.0 - - - - - - -
12/10:00pm 28.2 CALM 0 0 1008.3 - 0.0 - - - - - - -
12/09:30pm 28.2 CALM 0 0 1008.1 - 0.0 - - - - - - -
12/09:00pm 28.2 CALM 0 0 1007.8 - 0.0 - - - - - - -
12/08:30pm 28.4 CALM 0 2 1007.5 - 0.0 - - - - - - -
12/08:00pm 28.3 SSW 3 4 1007.5 - 0.0 - - - - - - -
12/07:30pm 28.5 SW 3 4 1007.0 - 0.0 - - - - - - -
12/07:00pm 29.2 SW 2 3 1006.9 - 0.0 - - - - - - -
12/06:30pm 29.7 NW 1 2 1006.6 - 0.0 - - - - - - -
12/06:00pm 29.7 NW 3 6 1006.2 - 0.0 - - - - - - -
12/05:30pm 29.8 NW 3 7 1006.0 - 0.0 - - - - - - -
12/05:00pm 29.9 NW 4 8 1006.1 - 0.0 - - - - - - -
12/04:30pm 30.2 NNW 4 9 1005.5 - 0.0 - - - - - - -
12/04:00pm 30.4 NW 6 9 1005.7 - 0.0 - - - - - - -
12/03:30pm 30.8 NW 6 11 1006.2 - 0.0 - - - - - - -
12/03:00pm 30.3 NNW 6 10 1006.1 - 0.0 - - - - - - -
12/02:30pm 31.4 NNW 6 13 1006.1 - 0.0 - - - - - - -
12/02:00pm 31.8 N 6 11 1006.3 - 0.0 - - - - - - -
12/01:30pm 31.6 N 4 7 1006.5 - 0.0 - - - - - - -
12/01:00pm 31.5 N 2 5 1007.1 - 0.0 - - - - - - -
12/12:30pm 31.3 NE 2 4 1007.7 - 0.0 - - - - - - -
12/12:00pm 31.1 ENE 3 5 1007.9 - 0.0 - - - - - - -
12/11:30am 31.1 ESE 1 3 1008.3 - 0.0 - - - - - - -
12/11:00am 30.7 WSW 1 3 1008.5 - 0.0 - - - - - - -
12/10:30am 30.1 WNW 3 5 1009.0 - 0.0 - - - - - - -
12/10:00am 29.9 WNW 2 4 1008.9 - 0.0 - - - - - - -
12/09:30am 29.6 CALM 0 3 1008.9 - 0.0 - - - - - - -
12/09:00am 29.1 W 4 6 1009.1 - 5.2 - - - - - - -
12/08:30am 28.3 SW 3 5 1009.0 - 5.2 - - - - - - -
12/08:00am 27.8 SSW 3 5 1008.7 - 5.2 - - - - - - -
12/07:30am 27.2 SW 5 8 1008.6 - 5.2 - - - - - - -
12/07:00am 26.6 SW 5 8 1008.6 - 5.2 - - - - - - -
12/06:30am 26.9 SW 4 6 1008.1 - 5.2 - - - - - - -
12/06:00am 26.4 SW 3 5 1007.5 - 5.2 - - - - - - -
12/05:30am 26.3 S 2 4 1007.2 - 5.2 - - - - - - -
12/05:00am 26.2 SW 6 9 1007.3 - 5.2 - - - - - - -
12/04:30am 26.2 SW 4 6 1007.5 - 4.8 - - - - - - -
12/04:00am 26.8 S 1 3 1007.5 - 4.4 - - - - - - -
12/03:30am 26.9 S 1 2 1007.2 - 4.0 - - - - - - -
12/03:00am 26.8 SSW 3 5 1006.6 - 4.0 - - - - - - -
12/02:30am 27.1 WNW 3 4 1006.0 - 4.0 - - - - - - -
12/02:00am 26.8 SW 2 4 1006.8 - 4.0 - - - - - - -
12/01:30am 27.4 CALM 0 0 1007.5 - 4.0 - - - - - - -
12/01:00am 27.3 NW 1 2 1007.6 - 4.0 - - - - - - -
12/12:30am 26.9 WNW 1 4 1007.7 - 4.0 - - - - - - -
12/12:00am 27.5 W 11 17 1008.1 - 0.0 - - - - - - -
 
Date/Time
CST
Temp

°C
Wind Pressure Rain
since 9am
mm
Weather Cloud Vis
km
Sea
Height
m
Swell
Dir
 
Speed
knots
Gust
knots
hPa Trend Height
m
Period
s
Dir
11/11:30pm 27.6 SSW 9 15 1008.5 - 0.0 - - - - - - -
11/11:00pm 29.7 WNW 4 7 1008.5 - 0.0 - - - - - - -
11/10:30pm 29.7 WNW 5 10 1008.3 - 0.0 - - - - - - -
11/10:00pm 29.7 NW 5 10 1007.9 - 0.0 - - - - - - -
11/09:30pm 29.9 NW 4 7 1007.4 - 0.0 - - - - - - -
11/09:00pm 29.6 NW 4 7 1007.1 - 0.0 - - - - - - -
11/08:30pm 29.7 NW 4 7 1006.8 - 0.0 - - - - - - -
11/08:00pm 29.7 NNW 3 7 1006.1 - 0.0 - - - - - - -
11/07:30pm 29.9 NNW 4 7 1005.9 - 0.0 - - - - - - -
11/07:00pm 30.3 NNW 5 10 1005.3 - 0.0 - - - - - - -
11/06:30pm 31.2 NNW 5 9 1004.9 - 0.0 - - - - - - -
11/06:00pm 31.5 N 5 9 1004.5 - 0.0 - - - - - - -
11/05:30pm 32.1 N 5 10 1004.2 - 0.0 - - - - - - -
11/05:00pm 31.6 N 6 10 1004.1 - 0.0 - - - - - - -
11/04:30pm 31.6 NNW 7 11 1004.1 - 0.0 - - - - - - -
11/04:00pm 31.7 NNW 6 10 1004.1 - 0.0 - - - - - - -
11/03:30pm 32.0 NNW 6 9 1004.1 - 0.0 - - - - - - -
11/03:00pm 31.8 NNW 5 9 1004.4 - 0.0 - - - - - - -
11/02:30pm 32.4 N 5 11 1004.7 - 0.0 - - - - - - -
11/02:00pm 32.5 NNW 4 8 1005.1 - 0.0 - - - - - - -
11/01:30pm 30.8 N 5 7 1005.5 - 0.0 - - - - - - -
11/01:00pm 31.5 NE 5 7 1005.9 - 0.0 - - - - - - -
11/12:30pm 31.6 NE 3 6 1006.2 - 0.0 - - - - - - -
11/12:00pm 30.5 ENE 5 7 1006.8 - 0.0 - - - - - - -
11/11:30am 31.9 SSE 4 6 1007.1 - 0.0 - - - - - - -
11/11:00am 31.7 S 3 7 1007.2 - 0.0 - - - - - - -
11/10:30am 31.4 W 4 7 1007.4 - 0.0 - - - - - - -
11/10:00am 30.4 W 3 6 1007.6 - 0.0 - - - - - - -
11/09:30am 29.8 W 5 7 1007.9 - 0.0 - - - - - - -
11/09:00am 29.4 W 8 10 1008.0 - 2.0 - - - - - - -
11/08:30am 29.3 W 7 10 1007.7 - 2.0 - - - - - - -
11/08:00am 28.6 W 6 9 1007.1 - 2.0 - - - - - - -
11/07:30am 27.6 W 6 8 1006.9 - 2.0 - - - - - - -
11/07:00am 26.6 WSW 4 5 1006.9 - 2.0 - - - - - - -
11/06:30am 26.8 WSW 6 8 1006.9 - 2.0 - - - - - - -
11/06:00am 26.7 WSW 6 8 1006.7 - 2.0 - - - - - - -
11/05:30am 26.3 WSW 5 6 1006.7 - 2.0 - - - - - - -
11/05:00am 26.1 WSW 4 7 1006.7 - 2.0 - - - - - - -
11/04:30am 26.0 SW 4 10 1006.3 - 2.0 - - - - - - -
11/04:00am 26.4 WSW 6 7 1005.9 - 2.0 - - - - - - -
11/03:30am 26.6 WSW 5 8 1005.9 - 2.0 - - - - - - -
11/03:00am 26.2 WSW 6 7 1006.1 - 2.0 - - - - - - -
11/02:30am 26.0 SW 5 6 1006.3 - 2.0 - - - - - - -
11/02:00am 25.6 SW 4 5 1006.8 - 2.0 - - - - - - -
11/01:30am 25.6 WSW 3 5 1007.0 - 2.0 - - - - - - -
11/01:00am 25.3 WSW 4 5 1007.5 - 2.0 - - - - - - -
11/12:30am 25.2 SW 4 6 1007.8 - 2.0 - - - - - - -
11/12:00am 25.4 SW 6 9 1008.4 - 2.0 Recent precip. - - - - - -
 
Date/Time
CST
Temp

°C
Wind Pressure Rain
since 9am
mm
Weather Cloud Vis
km
Sea
Height
m
Swell
Dir
 
Speed
knots
Gust
knots
hPa Trend Height
m
Period
s
Dir
10/11:30pm 25.7 SSW 4 5 1008.7 - 2.0 - - - - - - -
10/11:00pm 26.4 SSW 8 12 1009.1 - 0.2 - - - - - - -

Other Formats:

Comma delimited format used in spreadsheet applications
http://www.bom.gov.au/fwo/IDD60701/IDD60701.94139.axf

JavaScript Object Notation format (JSON) in row-major order
http://www.bom.gov.au/fwo/IDD60701/IDD60701.94139.json